Huadian, China
Current Conditions -  °F | °C
As of 11:00 AM on Wednesday 26 Nov 2014 (Local Time) from ZYCC Reporting Station
Clear Clear  
Wind Chill: 38°   Ceiling: Unl
Heat Index: 46°   Visibility: 6mi
Dew Point: 21°   Wind: 22mph
Humidity: 37%   Direction: 190°S
Pressure: 29.8"   Gusts: 34mph
Location:  42.97°N, 126.74°E
Report Text: ZYCC 260300Z 19010G15MPS CAVOK 08/M06 Q1009 NOSIG
Loading
Personal Weather Stations






























Interactive Weather Map New forecast layout! Learn more

10-Day Weather Forecast

Advertisements
Track Severe Weather on mobile